Time;durP1;ratioP1;P1;durP2;ratioP2;P2;SDS_P1;SDS_P2;PMS_P1;PMS_P2;Temp;Humidity;BMP_temperature;BMP_pressure;BME280_temperature;BME280_humidity;BME280_pressure;Samples;Min_cycle;Max_cycle;Signal;HPM_P1;HPM_P2
2023/08/31 00:02:40;;;;;;;0.10;0.10;;;;;;;10.24;100.00;95884.50;4857702;29;20096;-79
2023/08/31 00:05:28;;;;;;;0.13;0.13;;;;;;;10.16;100.00;95872.41;4859693;29;20049;-80
2023/08/31 00:08:14;;;;;;;0.10;0.10;;;;;;;10.16;100.00;95879.63;4859196;29;20041;-80
2023/08/31 00:11:00;;;;;;;0.10;0.10;;;;;;;10.17;100.00;95890.06;4858918;29;20048;-80
2023/08/31 00:13:46;;;;;;;0.10;0.10;;;;;;;10.18;100.00;95888.19;4845802;29;20073;-80
2023/08/31 00:16:33;;;;;;;0.10;0.10;;;;;;;10.43;100.00;95895.59;4847287;29;20048;-79
2023/08/31 00:19:19;;;;;;;0.10;0.10;;;;;;;10.59;100.00;95894.59;4858530;29;20099;-80
2023/08/31 00:22:05;;;;;;;0.10;0.10;;;;;;;10.62;100.00;95886.03;4857911;29;20698;-80
2023/08/31 00:24:51;;;;;;;0.20;0.20;;;;;;;10.41;100.00;95887.00;4857361;29;20084;-80
2023/08/31 00:27:37;;;;;;;0.10;0.10;;;;;;;10.30;100.00;95881.63;4856360;29;20108;-80
2023/08/31 00:30:28;;;;;;;0.10;0.10;;;;;;;10.25;100.00;95886.91;4857312;29;20050;-80
2023/08/31 00:33:15;;;;;;;0.20;0.20;;;;;;;10.25;100.00;95881.56;4856876;29;20057;-80
2023/08/31 00:36:01;;;;;;;0.10;0.10;;;;;;;10.26;100.00;95880.50;4856094;29;20045;-80
2023/08/31 00:38:47;;;;;;;0.10;0.10;;;;;;;10.31;100.00;95883.22;4859264;29;20056;-80
2023/08/31 00:41:33;;;;;;;0.10;0.10;;;;;;;10.36;100.00;95884.31;4856972;29;20583;-80
2023/08/31 00:44:19;;;;;;;0.20;0.20;;;;;;;10.41;100.00;95884.31;4857326;29;20055;-80
2023/08/31 00:47:08;;;;;;;0.10;0.10;;;;;;;10.36;100.00;95882.44;4843590;29;20508;-80
2023/08/31 00:49:53;;;;;;;0.10;0.10;;;;;;;10.28;100.00;95896.31;4857079;29;20056;-80
2023/08/31 00:52:41;;;;;;;0.10;0.10;;;;;;;10.26;100.00;95895.75;4857937;29;20097;-80
2023/08/31 00:55:28;;;;;;;0.03;0.03;;;;;;;10.27;100.00;95905.38;4844418;29;20575;-80
2023/08/31 00:58:14;;;;;;;0.10;0.10;;;;;;;10.04;100.00;95903.91;4848123;29;20531;-80
2023/08/31 01:01:28;;;;;;;0.10;0.10;;;;;;;10.07;100.00;95899.91;4838596;29;20052;-80
2023/08/31 01:04:25;;;;;;;0.20;0.20;;;;;;;10.00;100.00;95908.16;4835393;29;20049;-80
2023/08/31 01:07:34;;;;;;;0.20;0.20;;;;;;;9.94;100.00;95901.16;4839555;29;20050;-80
2023/08/31 01:10:41;;;;;;;0.13;0.13;;;;;;;9.83;100.00;95902.16;4827795;29;20571;-80
2023/08/31 01:13:30;;;;;;;0.20;0.20;;;;;;;9.77;100.00;95901.31;4839336;29;20136;-80
2023/08/31 01:16:17;;;;;;;0.10;0.10;;;;;;;9.76;100.00;95900.50;4842877;29;20057;-80
2023/08/31 01:19:17;;;;;;;0.10;0.10;;;;;;;9.82;100.00;95903.22;4842339;29;20381;-80
2023/08/31 01:22:07;;;;;;;0.10;0.10;;;;;;;9.90;100.00;95906.22;4831270;29;20045;-80
2023/08/31 01:24:54;;;;;;;0.10;0.10;;;;;;;9.96;100.00;95896.34;4842967;29;20128;-80
2023/08/31 01:27:41;;;;;;;0.10;0.10;;;;;;;9.95;100.00;95890.19;4843532;29;20355;-80
2023/08/31 01:30:31;;;;;;;0.20;0.20;;;;;;;9.92;100.00;95892.59;4842858;29;20711;-81
2023/08/31 01:33:17;;;;;;;0.10;0.10;;;;;;;9.98;100.00;95895.03;4841376;29;20050;-81
2023/08/31 01:36:28;;;;;;;0.10;0.10;;;;;;;9.99;100.00;95895.84;4842630;29;20056;-81
2023/08/31 01:39:21;;;;;;;0.10;0.10;;;;;;;9.97;100.00;95906.00;4842867;29;20053;-80
2023/08/31 01:42:10;;;;;;;0.10;0.10;;;;;;;9.90;100.00;95900.06;4841684;29;20106;-81
2023/08/31 01:44:57;;;;;;;0.10;0.10;;;;;;;9.81;100.00;95902.41;4842272;29;20463;-80
2023/08/31 01:47:43;;;;;;;0.20;0.20;;;;;;;9.74;100.00;95897.28;4842460;29;20110;-81
2023/08/31 01:50:29;;;;;;;0.10;0.10;;;;;;;9.92;100.00;95909.44;4841120;29;20052;-81
2023/08/31 01:53:15;;;;;;;0.10;0.10;;;;;;;9.91;100.00;95912.38;4842112;29;20059;-81
2023/08/31 01:56:02;;;;;;;0.10;0.10;;;;;;;10.01;100.00;95907.88;4844587;29;20073;-81
2023/08/31 01:58:48;;;;;;;0.10;0.10;;;;;;;10.05;100.00;95892.94;4841628;29;20081;-81
2023/08/31 02:01:34;;;;;;;0.10;0.10;;;;;;;10.05;100.00;95892.16;4841051;29;20052;-80
2023/08/31 02:04:20;;;;;;;0.10;0.10;;;;;;;10.07;100.00;95882.00;4841907;29;20056;-81
2023/08/31 02:07:06;;;;;;;0.10;0.10;;;;;;;10.18;100.00;95890.88;4840829;29;20130;-81
2023/08/31 02:09:53;;;;;;;0.20;0.20;;;;;;;10.23;100.00;95882.91;4840671;29;20053;-81
2023/08/31 02:12:39;;;;;;;0.20;0.20;;;;;;;10.24;100.00;95888.00;4828523;29;20144;-81
2023/08/31 02:15:25;;;;;;;0.20;0.20;;;;;;;10.29;100.00;95893.38;4840639;29;20050;-81
2023/08/31 02:18:11;;;;;;;0.10;0.10;;;;;;;10.22;100.00;95890.13;4838102;29;20041;-81
2023/08/31 02:20:57;;;;;;;0.10;0.10;;;;;;;10.17;100.00;95889.25;4842501;29;20048;-81
2023/08/31 02:23:43;;;;;;;0.20;0.20;;;;;;;10.01;100.00;95901.72;4841091;29;20086;-81
2023/08/31 02:26:29;;;;;;;0.10;0.10;;;;;;;9.77;100.00;95910.13;4839864;29;20056;-81
2023/08/31 02:29:15;;;;;;;0.20;0.20;;;;;;;9.72;100.00;95912.75;4841532;29;20093;-81
2023/08/31 02:32:04;;;;;;;0.20;0.20;;;;;;;9.74;100.00;95913.31;4839425;29;20045;-81
2023/08/31 02:34:50;;;;;;;0.10;0.10;;;;;;;9.76;100.00;95913.06;4840369;29;20053;-81
2023/08/31 02:37:36;;;;;;;0.10;0.10;;;;;;;9.83;100.00;95918.19;4840583;29;20710;-81
2023/08/31 02:40:22;;;;;;;0.10;0.10;;;;;;;9.90;100.00;95911.56;4840084;29;20045;-81
2023/08/31 02:43:10;;;;;;;0.13;0.13;;;;;;;9.95;100.00;95918.78;4827387;29;20042;-81
2023/08/31 02:46:01;;;;;;;0.10;0.10;;;;;;;9.99;100.00;95915.34;4840856;29;20072;-81
2023/08/31 02:48:47;;;;;;;0.10;0.10;;;;;;;9.96;100.00;95915.88;4840491;29;20041;-81
2023/08/31 02:51:34;;;;;;;0.10;0.10;;;;;;;10.12;100.00;95918.66;4837951;29;20053;-81
2023/08/31 02:54:20;;;;;;;0.10;0.10;;;;;;;10.18;100.00;95925.63;4839090;29;20045;-81
2023/08/31 02:57:07;;;;;;;0.10;0.10;;;;;;;10.23;100.00;95915.00;4840094;29;20780;-81
2023/08/31 02:59:53;;;;;;;0.10;0.10;;;;;;;10.30;100.00;95918.25;4842329;29;20041;-81
2023/08/31 03:02:39;;;;;;;0.10;0.10;;;;;;;10.12;100.00;95918.66;4837995;29;20070;-81
2023/08/31 03:05:25;;;;;;;0.10;0.10;;;;;;;9.92;100.00;95919.31;4840867;29;20045;-81
2023/08/31 03:08:11;;;;;;;0.10;0.10;;;;;;;9.88;100.00;95919.00;4828530;29;20041;-81
2023/08/31 03:10:58;;;;;;;0.10;0.10;;;;;;;9.94;100.00;95912.66;4841128;29;20403;-81
2023/08/31 03:13:44;;;;;;;0.10;0.10;;;;;;;9.97;100.00;95922.03;4842251;29;20056;-81
2023/08/31 03:16:31;;;;;;;0.10;0.10;;;;;;;10.14;100.00;95920.00;4839260;29;20089;-81
2023/08/31 03:19:17;;;;;;;0.15;0.15;;;;;;;10.24;100.00;95911.25;4829275;29;20050;-81
2023/08/31 03:22:03;;;;;;;0.10;0.10;;;;;;;10.30;100.00;95911.03;4839211;29;20049;-81
2023/08/31 03:24:49;;;;;;;0.10;0.10;;;;;;;10.38;100.00;95911.59;4840040;29;20030;-81
2023/08/31 03:27:35;;;;;;;0.10;0.10;;;;;;;10.38;100.00;95906.25;4838719;29;20073;-81
2023/08/31 03:30:21;;;;;;;0.20;0.20;;;;;;;10.28;100.00;95910.50;4840715;29;20050;-81
2023/08/31 03:33:08;;;;;;;0.20;0.20;;;;;;;10.26;100.00;95915.28;4839916;29;20041;-80
2023/08/31 03:35:59;;;;;;;0.20;0.20;;;;;;;10.20;100.00;95916.28;4839892;29;20061;-80
2023/08/31 03:38:45;;;;;;;0.10;0.10;;;;;;;10.18;100.00;95906.91;4838874;29;20042;-80
2023/08/31 03:41:31;;;;;;;0.00;0.00;;;;;;;10.21;100.00;95917.91;4825750;29;20056;-80
2023/08/31 03:44:20;;;;;;;0.20;0.20;;;;;;;10.21;100.00;95915.22;4841884;29;20041;-80
2023/08/31 03:47:06;;;;;;;0.10;0.10;;;;;;;10.31;100.00;95917.19;4842470;29;20037;-80
2023/08/31 03:49:52;;;;;;;0.10;0.10;;;;;;;10.26;100.00;95919.81;4838569;29;20057;-80
2023/08/31 03:52:40;;;;;;;0.10;0.10;;;;;;;10.26;100.00;95920.63;4839411;29;20897;-80
2023/08/31 03:55:25;;;;;;;0.10;0.10;;;;;;;10.22;100.00;95922.22;4838045;29;20053;-80
2023/08/31 03:58:12;;;;;;;0.20;0.20;;;;;;;10.20;100.00;95935.00;4838563;29;20061;-81
2023/08/31 04:00:59;;;;;;;0.10;0.10;;;;;;;10.14;100.00;95933.38;4838381;29;20053;-80
2023/08/31 04:03:45;;;;;;;0.10;0.10;;;;;;;10.15;100.00;95940.31;4840571;29;20045;-80
2023/08/31 04:06:31;;;;;;;0.17;0.17;;;;;;;10.04;100.00;95926.09;4839115;29;20049;-81
2023/08/31 04:09:17;;;;;;;0.10;0.10;;;;;;;9.98;100.00;95940.47;4830124;29;20053;-80
2023/08/31 04:12:03;;;;;;;0.10;0.10;;;;;;;9.98;100.00;95945.81;4828892;29;20051;-80
2023/08/31 04:14:50;;;;;;;0.10;0.10;;;;;;;10.05;100.00;95957.09;4838629;29;20057;-80
2023/08/31 04:17:36;;;;;;;0.10;0.10;;;;;;;10.00;100.00;95948.22;4841963;29;20049;-80
2023/08/31 04:20:25;;;;;;;0.20;0.20;;;;;;;9.83;100.00;95945.72;4830976;29;20137;-80
2023/08/31 04:23:11;;;;;;;0.10;0.10;;;;;;;9.87;100.00;95957.50;4840287;29;20046;-80
2023/08/31 04:25:57;;;;;;;0.10;0.10;;;;;;;10.01;100.00;95958.66;4838632;29;20052;-80
2023/08/31 04:28:43;;;;;;;0.13;0.13;;;;;;;10.01;100.00;95960.53;4840820;29;20045;-80
2023/08/31 04:31:29;;;;;;;0.10;0.10;;;;;;;10.24;100.00;95965.53;4839441;29;20053;-80
2023/08/31 04:34:15;;;;;;;0.20;0.20;;;;;;;10.33;100.00;95966.66;4841099;29;20047;-80
2023/08/31 04:37:02;;;;;;;0.10;0.10;;;;;;;10.43;100.00;95955.22;4841159;29;20096;-80
2023/08/31 04:39:48;;;;;;;0.20;0.20;;;;;;;10.46;100.00;95960.06;4841813;29;20045;-80
2023/08/31 04:42:34;;;;;;;0.10;0.10;;;;;;;10.40;100.00;95968.31;4838970;29;20686;-80
2023/08/31 04:45:20;;;;;;;0.13;0.13;;;;;;;10.31;100.00;95966.13;4841624;29;20045;-80
2023/08/31 04:48:06;;;;;;;0.10;0.10;;;;;;;10.40;100.00;95977.13;4841884;29;20403;-80
2023/08/31 04:50:57;;;;;;;0.10;0.10;;;;;;;10.48;100.00;95965.13;4843549;29;20152;-80
2023/08/31 04:53:42;;;;;;;0.15;0.15;;;;;;;10.60;100.00;95968.44;4844397;29;20376;-80
2023/08/31 04:56:32;;;;;;;0.17;0.17;;;;;;;10.59;100.00;95974.84;4844784;29;20129;-80
2023/08/31 04:59:18;;;;;;;0.20;0.20;;;;;;;10.58;100.00;95970.53;4861450;29;20056;-80
2023/08/31 05:02:04;;;;;;;0.10;0.10;;;;;;;10.56;100.00;95976.16;4862417;29;20080;-80
2023/08/31 05:04:51;;;;;;;0.10;0.10;;;;;;;10.52;100.00;95972.41;4863674;29;20885;-80
2023/08/31 05:07:37;;;;;;;0.10;0.10;;;;;;;10.45;100.00;95987.88;4865209;29;20132;-80
2023/08/31 05:10:23;;;;;;;0.10;0.10;;;;;;;10.24;100.00;95983.44;4863986;29;20072;-80
2023/08/31 05:13:09;;;;;;;0.10;0.10;;;;;;;10.25;100.00;95988.53;4864062;29;20041;-80
2023/08/31 05:15:54;;;;;;;0.10;0.10;;;;;;;10.33;100.00;95990.72;4863919;28;20053;-80
2023/08/31 05:18:41;;;;;;;0.10;0.10;;;;;;;10.39;100.00;95993.44;4863249;28;20045;-79
2023/08/31 05:21:26;;;;;;;0.10;0.10;;;;;;;10.49;100.00;96006.88;4863530;29;20045;-80
2023/08/31 05:24:12;;;;;;;0.10;0.10;;;;;;;10.46;100.00;96005.53;4864564;29;20057;-79
2023/08/31 05:26:58;;;;;;;0.20;0.20;;;;;;;10.46;100.00;96007.41;4863352;29;20049;-80
2023/08/31 05:29:44;;;;;;;0.10;0.10;;;;;;;10.32;100.00;96007.84;4862721;29;20156;-80
2023/08/31 05:32:30;;;;;;;0.10;0.10;;;;;;;10.27;100.00;96004.31;4862660;29;20084;-80
2023/08/31 05:35:16;;;;;;;0.10;0.10;;;;;;;10.40;100.00;96013.78;4864354;29;20071;-80
2023/08/31 05:38:02;;;;;;;0.10;0.10;;;;;;;10.43;100.00;96021.31;4847950;29;20125;-79
2023/08/31 05:40:48;;;;;;;0.10;0.10;;;;;;;10.41;100.00;96020.72;4864511;29;20215;-79
2023/08/31 05:43:36;;;;;;;0.20;0.20;;;;;;;10.64;100.00;96022.22;4863490;29;20056;-79
2023/08/31 05:46:21;;;;;;;0.10;0.10;;;;;;;10.72;100.00;96022.53;4849866;29;20116;-79
2023/08/31 05:49:07;;;;;;;0.10;0.10;;;;;;;10.65;100.00;96029.16;4862752;29;20041;-79
2023/08/31 05:51:53;;;;;;;0.10;0.10;;;;;;;10.31;100.00;96030.31;4862725;29;20049;-79
2023/08/31 05:54:39;;;;;;;0.10;0.10;;;;;;;10.41;100.00;96031.44;4865216;29;20087;-79
2023/08/31 05:57:27;;;;;;;0.10;0.10;;;;;;;10.16;100.00;96034.69;4862287;29;20057;-79
2023/08/31 06:00:13;;;;;;;0.10;0.10;;;;;;;10.20;100.00;96033.94;4840071;29;20046;-79
2023/08/31 06:03:00;;;;;;;0.10;0.10;;;;;;;10.34;100.00;96020.94;4842180;29;20041;-81
2023/08/31 06:05:46;;;;;;;0.17;0.17;;;;;;;10.56;100.00;96020.81;4845142;29;20048;-81
2023/08/31 06:08:31;;;;;;;0.10;0.10;;;;;;;10.53;100.00;96030.19;4842299;29;20092;-81
2023/08/31 06:11:17;;;;;;;0.10;0.10;;;;;;;10.31;100.00;96040.19;4842247;29;20507;-81
2023/08/31 06:14:03;;;;;;;0.10;0.10;;;;;;;10.30;100.00;96038.59;4843589;29;20871;-81
2023/08/31 06:16:49;;;;;;;0.10;0.10;;;;;;;10.28;100.00;96044.19;4842667;29;20049;-81
2023/08/31 06:19:36;;;;;;;0.10;0.10;;;;;;;10.47;100.00;96035.75;4842973;29;20102;-81
2023/08/31 06:22:24;;;;;;;0.10;0.10;;;;;;;10.40;100.00;96048.53;4844330;29;20057;-82
2023/08/31 06:25:11;;;;;;;0.10;0.10;;;;;;;10.31;100.00;96050.88;4843773;29;21156;-81
2023/08/31 06:27:57;;;;;;;0.20;0.20;;;;;;;10.27;100.00;96055.97;4829499;29;20060;-82
2023/08/31 06:30:46;;;;;;;0.10;0.10;;;;;;;10.41;100.00;96044.81;4841926;29;20052;-82
2023/08/31 06:33:32;;;;;;;0.10;0.10;;;;;;;10.66;100.00;96062.88;4842991;29;20045;-82
2023/08/31 06:36:20;;;;;;;0.17;0.17;;;;;;;10.94;100.00;96051.81;4842854;29;20072;-81
2023/08/31 06:39:06;;;;;;;0.10;0.10;;;;;;;10.66;100.00;96058.38;4844660;29;20096;-81
2023/08/31 06:41:52;;;;;;;0.10;0.10;;;;;;;10.92;100.00;96061.19;4843212;29;20130;-81
2023/08/31 06:44:38;;;;;;;0.20;0.20;;;;;;;10.99;100.00;96064.44;4842744;29;20034;-81
2023/08/31 06:47:23;;;;;;;0.10;0.10;;;;;;;10.99;100.00;96061.75;4843229;29;20053;-82
2023/08/31 06:50:09;;;;;;;0.20;0.20;;;;;;;11.08;100.00;96068.22;4842757;29;20046;-81
2023/08/31 06:52:55;;;;;;;0.20;0.20;;;;;;;11.04;100.00;96072.47;4844074;29;20046;-81
2023/08/31 06:55:41;;;;;;;0.10;0.10;;;;;;;11.16;100.00;96067.72;4842294;29;20098;-81
2023/08/31 06:58:27;;;;;;;0.20;0.20;;;;;;;11.21;100.00;96066.94;4844845;29;20152;-81
2023/08/31 07:01:13;;;;;;;0.10;0.10;;;;;;;11.26;100.00;96072.31;4842130;29;20053;-81
2023/08/31 07:03:59;;;;;;;0.10;0.10;;;;;;;11.40;100.00;96076.91;4841473;29;20087;-81
2023/08/31 07:06:44;;;;;;;0.20;0.20;;;;;;;11.33;100.00;96075.56;4841425;29;20053;-81
2023/08/31 07:09:30;;;;;;;0.10;0.10;;;;;;;11.46;100.00;96080.44;4840509;29;20079;-82
2023/08/31 07:12:16;;;;;;;0.20;0.20;;;;;;;11.60;100.00;96081.56;4842568;29;20077;-82
2023/08/31 07:15:03;;;;;;;0.20;0.20;;;;;;;11.94;100.00;96075.75;4827656;29;20045;-82
2023/08/31 07:17:49;;;;;;;0.20;0.20;;;;;;;11.71;100.00;96075.13;4844435;29;20520;-82
2023/08/31 07:20:35;;;;;;;0.10;0.10;;;;;;;12.03;100.00;96074.16;4840441;29;20120;-81
2023/08/31 07:23:21;;;;;;;0.10;0.10;;;;;;;12.15;100.00;96071.22;4840354;29;20045;-81
2023/08/31 07:26:06;;;;;;;0.10;0.10;;;;;;;12.07;100.00;96079.81;4842205;29;20609;-81
2023/08/31 07:28:52;;;;;;;0.20;0.20;;;;;;;11.99;100.00;96073.88;4843278;29;20647;-81
2023/08/31 07:31:38;;;;;;;0.10;0.10;;;;;;;12.13;100.00;96076.03;4841417;29;20046;-81
2023/08/31 07:34:24;;;;;;;0.15;0.15;;;;;;;12.27;100.00;96077.13;4841699;29;20037;-81
2023/08/31 07:37:10;;;;;;;0.10;0.10;;;;;;;12.14;100.00;96085.69;4840869;29;20053;-81
2023/08/31 07:39:56;;;;;;;0.10;0.10;;;;;;;12.62;100.00;96089.72;4841801;29;20451;-81
2023/08/31 07:42:42;;;;;;;0.10;0.10;;;;;;;13.11;100.00;96081.03;4842039;29;20048;-81
2023/08/31 07:45:30;;;;;;;0.20;0.20;;;;;;;13.31;100.00;96090.94;4840297;29;20057;-81
2023/08/31 07:48:16;;;;;;;0.10;0.10;;;;;;;13.65;100.00;96086.50;4827975;29;20132;-81
2023/08/31 07:51:03;;;;;;;0.10;0.10;;;;;;;13.54;100.00;96086.81;4840516;29;20049;-81
2023/08/31 07:53:49;;;;;;;0.10;0.10;;;;;;;13.58;100.00;96088.69;4841437;29;20076;-81
2023/08/31 07:56:35;;;;;;;0.15;0.15;;;;;;;13.93;100.00;96094.97;4842884;29;20137;-81
2023/08/31 07:59:21;;;;;;;0.20;0.20;;;;;;;14.16;100.00;96101.50;4840972;29;20077;-82
2023/08/31 08:02:07;;;;;;;0.13;0.13;;;;;;;14.14;100.00;96099.09;4842476;29;20182;-82
2023/08/31 08:04:53;;;;;;;0.10;0.10;;;;;;;14.09;100.00;96101.03;4840073;29;20045;-82
2023/08/31 08:07:40;;;;;;;0.10;0.10;;;;;;;13.82;100.00;96096.88;4843402;29;20125;-81
2023/08/31 08:10:29;;;;;;;0.10;0.10;;;;;;;13.92;100.00;96112.16;4842465;29;20053;-82
2023/08/31 08:13:15;;;;;;;0.10;0.10;;;;;;;14.22;100.00;96108.47;4841517;29;20941;-81
2023/08/31 08:16:01;;;;;;;0.10;0.10;;;;;;;13.96;100.00;96110.53;4843428;29;20049;-81
2023/08/31 08:18:47;;;;;;;0.15;0.15;;;;;;;13.76;100.00;96121.38;4840975;29;20072;-82
2023/08/31 08:21:33;;;;;;;0.10;0.10;;;;;;;13.63;100.00;96110.16;4840940;29;20053;-82
2023/08/31 08:24:19;;;;;;;0.20;0.20;;;;;;;13.97;100.00;96119.41;4841793;29;20045;-81
2023/08/31 08:27:05;;;;;;;0.10;0.10;;;;;;;13.97;100.00;96120.22;4839885;29;20447;-81
2023/08/31 08:29:51;;;;;;;0.10;0.10;;;;;;;14.63;100.00;96124.34;4839495;29;20054;-81
2023/08/31 08:32:36;;;;;;;0.10;0.10;;;;;;;14.61;100.00;96132.72;4841086;29;20045;-81
2023/08/31 08:35:22;;;;;;;0.13;0.13;;;;;;;14.39;100.00;96132.31;4841324;29;20060;-82
2023/08/31 08:38:08;;;;;;;0.20;0.20;;;;;;;14.44;100.00;96133.09;4843705;29;20053;-82
2023/08/31 08:40:54;;;;;;;0.10;0.10;;;;;;;14.37;100.00;96129.09;4841886;29;20110;-82
2023/08/31 08:43:46;;;;;;;0.20;0.20;;;;;;;13.85;100.00;96131.31;4840585;29;21338;-81
2023/08/31 08:46:33;;;;;;;0.10;0.10;;;;;;;13.60;100.00;96151.03;4841730;29;20097;-82
2023/08/31 08:49:21;;;;;;;0.13;0.13;;;;;;;13.49;100.00;96143.28;4840538;29;20145;-81
2023/08/31 08:52:07;;;;;;;0.10;0.10;;;;;;;13.94;100.00;96137.72;4840764;29;20057;-82
2023/08/31 08:54:53;;;;;;;0.10;0.10;;;;;;;13.68;100.00;96144.28;4841012;29;20385;-82
2023/08/31 08:57:39;;;;;;;0.10;0.10;;;;;;;13.57;100.00;96138.16;4841122;29;20057;-81
2023/08/31 09:00:27;;;;;;;0.10;0.10;;;;;;;13.72;100.00;96142.66;4839644;29;20057;-82
2023/08/31 09:03:13;;;;;;;0.10;0.10;;;;;;;14.21;100.00;96139.16;4840098;29;20056;-81
2023/08/31 09:06:01;;;;;;;0.10;0.10;;;;;;;14.29;100.00;96146.66;4841538;29;20167;-81
2023/08/31 09:08:55;;;;;;;0.10;0.10;;;;;;;14.39;100.00;96137.69;4841262;29;20044;-81
2023/08/31 09:11:40;;;;;;;0.10;0.10;;;;;;;14.80;100.00;96142.81;4839656;29;20049;-82
2023/08/31 09:14:26;;;;;;;0.20;0.20;;;;;;;14.71;100.00;96140.72;4840219;29;20098;-81
2023/08/31 09:17:12;;;;;;;0.10;0.10;;;;;;;15.12;100.00;96150.31;4840425;29;20411;-82
2023/08/31 09:19:59;;;;;;;0.17;0.17;;;;;;;14.95;100.00;96150.75;4841721;29;20496;-82
2023/08/31 09:22:45;;;;;;;0.20;0.20;;;;;;;15.29;100.00;96146.09;4841187;29;20052;-82
2023/08/31 09:25:31;;;;;;;0.17;0.17;;;;;;;15.19;100.00;96148.91;4840255;29;20202;-82
2023/08/31 09:28:19;;;;;;;0.20;0.20;;;;;;;15.22;100.00;96151.00;4837860;29;20045;-81
2023/08/31 09:31:07;;;;;;;0.13;0.13;;;;;;;14.41;100.00;96157.06;4840460;29;20048;-81
2023/08/31 09:33:53;;;;;;;0.10;0.10;;;;;;;15.23;100.00;96163.41;4837547;29;20702;-82
2023/08/31 09:36:38;;;;;;;0.13;0.13;;;;;;;15.01;100.00;96155.00;4840984;29;20057;-82
2023/08/31 09:39:35;;;;;;;0.20;0.20;;;;;;;14.96;100.00;96147.78;4845228;29;20961;-82
2023/08/31 09:42:21;;;;;;;0.10;0.10;;;;;;;15.50;100.00;96152.06;4843458;29;20088;-82
2023/08/31 09:45:08;;;;;;;0.20;0.20;;;;;;;15.37;100.00;96160.03;4845609;29;20703;-81
2023/08/31 09:47:54;;;;;;;0.20;0.20;;;;;;;15.55;100.00;96168.19;4845046;29;20053;-81
2023/08/31 09:50:42;;;;;;;0.20;0.20;;;;;;;15.29;100.00;96143.41;4841841;29;20571;-82
2023/08/31 09:53:29;;;;;;;0.10;0.10;;;;;;;15.30;100.00;96149.59;4842866;29;20061;-81
2023/08/31 09:56:22;;;;;;;0.10;0.10;;;;;;;16.13;100.00;96161.84;4843446;29;20534;-81
2023/08/31 09:59:09;;;;;;;0.10;0.10;;;;;;;16.93;100.00;96155.53;4844919;29;20061;-82
2023/08/31 10:02:01;;;;;;;0.10;0.10;;;;;;;16.74;100.00;96155.59;4843047;29;20714;-81
2023/08/31 10:04:48;;;;;;;0.20;0.20;;;;;;;17.20;100.00;96163.72;4844095;29;20042;-82
2023/08/31 10:07:37;;;;;;;0.13;0.13;;;;;;;16.55;100.00;96162.88;4840390;29;20042;-82
2023/08/31 10:10:24;;;;;;;0.20;0.20;;;;;;;15.91;100.00;96167.00;4844113;29;20038;-81
2023/08/31 10:13:11;;;;;;;0.20;0.20;;;;;;;15.75;100.00;96153.69;4842977;29;20045;-82
2023/08/31 10:15:56;;;;;;;0.20;0.20;;;;;;;15.85;100.00;96158.16;4843538;29;20065;-82
2023/08/31 10:18:42;;;;;;;0.20;0.20;;;;;;;15.72;100.00;96150.75;4844881;29;20674;-82
2023/08/31 10:21:28;;;;;;;0.20;0.20;;;;;;;15.97;100.00;96160.47;4842501;29;20038;-82
2023/08/31 10:24:14;;;;;;;0.20;0.20;;;;;;;16.23;100.00;96160.91;4845304;29;20076;-82
2023/08/31 10:27:18;;;;;;;0.20;0.20;;;;;;;17.30;100.00;96162.75;4844359;29;20209;-82
2023/08/31 10:30:22;;;;;;;0.10;0.10;;;;;;;17.18;100.00;96167.81;4843807;29;20073;-82
2023/08/31 10:33:08;;;;;;;0.15;0.15;;;;;;;17.38;100.00;96158.53;4842466;29;20102;-82
2023/08/31 10:35:57;;;;;;;0.10;0.10;;;;;;;17.95;100.00;96146.34;4843498;29;20049;-82
2023/08/31 10:38:56;;;;;;;0.15;0.15;;;;;;;18.12;100.00;96155.75;4840551;29;20038;-82
2023/08/31 10:41:52;;;;;;;0.20;0.20;;;;;;;17.33;100.00;96159.44;4839862;29;20382;-82
2023/08/31 10:44:42;;;;;;;0.10;0.10;;;;;;;19.52;100.00;96148.31;4841351;29;20045;-82
2023/08/31 10:47:42;;;;;;;0.10;0.10;;;;;;;20.35;100.00;96151.94;4840866;29;20111;-83
2023/08/31 10:50:28;;;;;;;0.13;0.13;;;;;;;18.50;100.00;96161.66;4840311;29;20160;-83
2023/08/31 10:53:14;;;;;;;0.10;0.10;;;;;;;18.34;100.00;96156.59;4844438;29;20117;-82
2023/08/31 10:56:00;;;;;;;0.10;0.10;;;;;;;17.75;100.00;96163.00;4843736;29;20128;-82
2023/08/31 10:58:57;;;;;;;0.20;0.20;;;;;;;17.85;100.00;96157.38;4842927;29;20175;-82
2023/08/31 11:02:04;;;;;;;0.20;0.20;;;;;;;18.46;100.00;96153.38;4842412;29;20139;-82
2023/08/31 11:05:14;;;;;;;0.10;0.10;;;;;;;21.05;93.93;96152.72;4841564;29;20045;-82
2023/08/31 11:08:00;;;;;;;0.20;0.20;;;;;;;19.31;97.92;96154.28;4841102;29;20045;-82
2023/08/31 11:10:46;;;;;;;0.20;0.20;;;;;;;21.57;82.03;96156.16;4840266;29;20045;-82
2023/08/31 11:13:32;;;;;;;0.10;0.10;;;;;;;19.69;97.66;96160.09;4842631;29;20049;-82
2023/08/31 11:16:17;;;;;;;0.20;0.20;;;;;;;18.65;100.00;96161.31;4841487;29;20083;-82
2023/08/31 11:19:04;;;;;;;0.10;0.10;;;;;;;17.90;100.00;96162.69;4844568;29;20109;-82
2023/08/31 11:21:50;;;;;;;0.10;0.10;;;;;;;17.83;100.00;96165.00;4841896;29;20625;-82
2023/08/31 11:24:36;;;;;;;0.10;0.10;;;;;;;18.22;100.00;96158.25;4843218;29;20573;-82
2023/08/31 11:27:22;;;;;;;0.20;0.20;;;;;;;17.45;100.00;96170.56;4841268;29;20097;-83
2023/08/31 11:30:15;;;;;;;0.15;0.15;;;;;;;20.10;100.00;96158.91;4840752;29;20464;-81
2023/08/31 11:33:06;;;;;;;0.20;0.20;;;;;;;18.63;100.00;96168.97;4841508;29;20554;-82
2023/08/31 11:35:53;;;;;;;0.10;0.10;;;;;;;18.04;100.00;96157.25;4839463;29;20518;-81
2023/08/31 11:38:40;;;;;;;0.10;0.10;;;;;;;17.78;100.00;96167.81;4840758;29;20049;-82
2023/08/31 11:41:32;;;;;;;0.10;0.10;;;;;;;16.83;100.00;96166.53;4840500;29;20116;-81
2023/08/31 11:44:18;;;;;;;0.15;0.15;;;;;;;16.91;100.00;96169.34;4839928;29;20042;-82
2023/08/31 11:47:05;;;;;;;0.10;0.10;;;;;;;17.33;100.00;96158.63;4839163;29;20061;-82
2023/08/31 11:49:51;;;;;;;0.10;0.10;;;;;;;16.97;100.00;96167.38;4843256;29;20826;-82
2023/08/31 11:52:38;;;;;;;0.10;0.10;;;;;;;16.75;100.00;96168.00;4841736;29;20507;-82
2023/08/31 11:55:24;;;;;;;0.20;0.20;;;;;;;17.02;100.00;96158.38;4839129;29;20389;-82
2023/08/31 11:58:10;;;;;;;0.10;0.10;;;;;;;16.76;100.00;96145.28;4841188;29;20055;-81
2023/08/31 12:00:59;;;;;;;0.10;0.10;;;;;;;16.77;100.00;96143.38;4841094;29;20578;-82
2023/08/31 12:03:46;;;;;;;0.10;0.10;;;;;;;16.88;100.00;96147.50;4842298;29;20088;-82
2023/08/31 12:06:32;;;;;;;0.10;0.10;;;;;;;16.80;100.00;96140.88;4840706;29;20085;-81
2023/08/31 12:09:19;;;;;;;0.10;0.10;;;;;;;16.75;100.00;96153.69;4843227;29;20085;-81
2023/08/31 12:12:07;;;;;;;0.15;0.15;;;;;;;16.60;100.00;96143.91;4842209;29;20196;-82
2023/08/31 12:14:53;;;;;;;0.10;0.10;;;;;;;16.89;100.00;96151.84;4842796;29;20164;-81
2023/08/31 12:17:39;;;;;;;0.10;0.10;;;;;;;18.14;100.00;96151.63;4839624;29;20046;-82
2023/08/31 12:20:26;;;;;;;0.20;0.20;;;;;;;18.20;100.00;96155.81;4828074;29;20648;-82
2023/08/31 12:23:14;;;;;;;0.20;0.20;;;;;;;22.47;100.00;96146.84;4840881;29;20049;-82
2023/08/31 12:26:01;;;;;;;0.20;0.20;;;;;;;23.01;100.00;96138.72;4842343;29;20479;-82
2023/08/31 12:28:47;;;;;;;0.13;0.10;;;;;;;21.11;100.00;96141.38;4841662;29;20061;-81
2023/08/31 12:31:33;;;;;;;0.10;0.10;;;;;;;19.83;100.00;96140.94;4839336;29;20102;-82
2023/08/31 12:34:19;;;;;;;0.10;0.10;;;;;;;18.95;100.00;96146.25;4840230;29;20122;-82
2023/08/31 12:37:04;;;;;;;0.10;0.10;;;;;;;18.27;100.00;96144.56;4842564;29;20057;-82
2023/08/31 12:39:51;;;;;;;0.10;0.10;;;;;;;18.14;100.00;96137.31;4840593;29;20049;-82
2023/08/31 12:42:37;;;;;;;0.13;0.13;;;;;;;18.70;100.00;96130.63;4841398;29;20467;-82
2023/08/31 12:45:23;;;;;;;0.20;0.20;;;;;;;19.65;100.00;96125.72;4828021;29;21039;-81
2023/08/31 12:48:09;;;;;;;0.13;0.13;;;;;;;20.62;100.00;96112.00;4842960;29;20503;-81
2023/08/31 12:50:55;;;;;;;0.10;0.10;;;;;;;21.42;100.00;96118.59;4842865;29;20052;-81
2023/08/31 12:53:40;;;;;;;0.20;0.20;;;;;;;21.47;100.00;96114.88;4842367;29;20045;-82
2023/08/31 12:56:26;;;;;;;0.20;0.20;;;;;;;21.20;100.00;96121.50;4841950;29;20623;-82
2023/08/31 12:59:12;;;;;;;0.10;0.10;;;;;;;21.07;100.00;96117.84;4841929;29;20054;-81
2023/08/31 13:01:58;;;;;;;0.10;0.10;;;;;;;21.20;100.00;96118.78;4840219;29;20986;-82